EH-0002 weather

Al Mahbes Airstrip
Al Mahbes, Western Sahara

Public forecast

Using degrees Celsius for public forecast. Weather courtesy of forecast.io.

METAR (pilot weather report)

Closest report is Tindouf Airport, 51.3 nm (95.0 km) ENE. Retrieved 2019/05/25 20:00 UTC (28 minutes ago):

DAOF 252000Z 29022KT CAVOK 28/04 Q1007

TAF (pilot weather forecast)

Forecast is more than 12 hours old.

Closest forecast is Tindouf Airport, 51.3 nm (95.0 km) ENE. Retrieved 2017/11/09 18:03 UTC (2 years ago):

TAF DAOF 091700Z 0918/1009 32010KT 9999 SCT040 BKN100 PROB30 TEMPO 0918/0921 FEW033CB